createdAt,value
2018-09-28T00:02:18.869Z,71.90
2018-09-28T00:04:50.622Z,72.00
2018-09-28T00:07:22.342Z,71.80
2018-09-28T00:09:54.230Z,72.70
2018-09-28T00:12:26.072Z,72.10
2018-09-28T00:14:57.770Z,72.40
2018-09-28T00:17:29.584Z,72.20
2018-09-28T00:20:01.468Z,72.00
2018-09-28T00:22:33.077Z,71.60
2018-09-28T00:25:05.036Z,71.90
2018-09-28T00:27:36.805Z,71.40
2018-09-28T00:30:08.709Z,71.20
2018-09-28T00:32:40.333Z,71.70
2018-09-28T00:35:12.157Z,71.60
2018-09-28T00:37:43.861Z,71.60
2018-09-28T00:40:15.751Z,71.70
2018-09-28T00:42:47.470Z,72.00
2018-09-28T00:45:19.181Z,72.10
2018-09-28T00:47:50.874Z,72.20
2018-09-28T00:50:22.592Z,72.50
2018-09-28T00:52:54.239Z,72.70
2018-09-28T00:55:26.034Z,73.10
2018-09-28T00:57:57.710Z,73.70
2018-09-28T01:00:29.518Z,73.10
2018-09-28T01:03:01.382Z,73.10
2018-09-28T01:05:33.163Z,72.40
2018-09-28T01:08:04.763Z,72.20
2018-09-28T01:10:36.650Z,71.90
2018-09-28T01:13:08.479Z,72.00
2018-09-28T01:15:40.160Z,72.00
2018-09-28T01:18:11.980Z,72.70
2018-09-28T01:20:43.806Z,74.10
2018-09-28T01:23:15.412Z,75.10
2018-09-28T01:25:47.197Z,75.80
2018-09-28T01:28:18.938Z,76.00
2018-09-28T01:30:50.633Z,76.50
2018-09-28T01:33:22.338Z,76.40
2018-09-28T01:35:54.049Z,77.10
2018-09-28T01:38:25.771Z,75.90
2018-09-28T01:40:57.788Z,75.70
2018-09-28T01:43:29.753Z,75.10
2018-09-28T01:46:01.610Z,75.10
2018-09-28T01:48:33.387Z,74.70
2018-09-28T01:51:05.115Z,74.90
2018-09-28T01:53:36.722Z,74.80
2018-09-28T01:56:08.618Z,75.00
2018-09-28T01:58:40.251Z,75.10
2018-09-28T02:01:11.955Z,75.70
2018-09-28T02:03:43.791Z,75.70
2018-09-28T02:06:15.585Z,76.00
2018-09-28T02:08:47.276Z,76.10
2018-09-28T02:11:19.167Z,76.00
2018-09-28T02:13:50.793Z,75.90
2018-09-28T02:16:22.497Z,75.90
2018-09-28T02:18:54.293Z,75.40
2018-09-28T02:21:26.016Z,75.90
2018-09-28T02:23:57.624Z,75.00
2018-09-28T02:26:29.551Z,74.80
2018-09-28T02:29:01.245Z,75.10
2018-09-28T02:31:33.063Z,75.90
2018-09-28T02:34:04.960Z,76.10
2018-09-28T02:36:36.666Z,76.20
2018-09-28T02:39:09.320Z,76.60
2018-09-28T02:41:41.010Z,77.50
2018-09-28T02:44:12.724Z,76.80
2018-09-28T02:46:44.544Z,76.40
2018-09-28T02:49:16.227Z,76.20
2018-09-28T02:51:48.133Z,76.00
2018-09-28T02:54:19.970Z,76.40
2018-09-28T02:56:51.842Z,76.00
2018-09-28T02:59:23.585Z,75.80
2018-09-28T03:01:55.508Z,75.80
2018-09-28T03:04:27.191Z,76.10
2018-09-28T03:06:58.914Z,75.60
2018-09-28T03:09:30.617Z,76.00
2018-09-28T03:12:02.322Z,76.70
2018-09-28T03:14:33.922Z,77.20
2018-09-28T03:17:05.645Z,77.50
2018-09-28T03:19:37.554Z,77.30
2018-09-28T03:22:09.260Z,76.70
2018-09-28T03:24:40.863Z,76.60
2018-09-28T03:27:12.644Z,76.50
2018-09-28T03:29:44.257Z,76.50
2018-09-28T03:32:16.071Z,76.70
2018-09-28T03:34:47.812Z,77.40
2018-09-28T03:37:19.507Z,77.80
2018-09-28T03:39:51.397Z,78.20
2018-09-28T03:42:23.229Z,78.90
2018-09-28T03:44:54.839Z,79.40
2018-09-28T03:47:26.718Z,80.00
2018-09-28T03:49:58.703Z,80.60
2018-09-28T03:52:30.377Z,80.10
2018-09-28T03:55:02.123Z,80.30
2018-09-28T03:57:33.896Z,79.80
2018-09-28T04:00:05.749Z,79.20
2018-09-28T04:02:37.713Z,78.70
2018-09-28T04:05:09.530Z,78.80
2018-09-28T04:07:41.305Z,78.20
2018-09-28T04:10:13.101Z,77.10
2018-09-28T04:12:44.844Z,77.20
2018-09-28T04:15:16.694Z,78.10
2018-09-28T04:17:48.369Z,78.60
2018-09-28T04:20:20.086Z,78.80
2018-09-28T04:22:52.100Z,79.10
2018-09-28T04:25:24.065Z,79.40
2018-09-28T04:27:55.797Z,78.60
2018-09-28T04:30:27.416Z,77.90
2018-09-28T04:33:00.038Z,78.40
2018-09-28T04:35:31.836Z,78.70
2018-09-28T04:38:03.670Z,79.50
2018-09-28T04:40:35.258Z,80.20
2018-09-28T04:43:07.284Z,80.80
2018-09-28T04:45:39.026Z,81.40
2018-09-28T04:48:10.696Z,81.60
2018-09-28T04:50:43.116Z,82.20
2018-09-28T04:53:14.918Z,82.20
2018-09-28T04:55:46.523Z,81.50
2018-09-28T04:58:18.242Z,81.50
2018-09-28T05:00:49.972Z,81.30
2018-09-28T05:03:21.641Z,81.60
2018-09-28T05:05:53.449Z,80.90
2018-09-28T05:08:25.176Z,80.50
2018-09-28T05:10:56.890Z,80.30
2018-09-28T05:13:28.707Z,81.00
2018-09-28T05:16:00.458Z,80.60
2018-09-28T05:18:32.146Z,79.80
2018-09-28T05:21:03.863Z,80.00
2018-09-28T05:23:35.481Z,79.60
2018-09-28T05:26:07.378Z,79.60
2018-09-28T05:28:39.167Z,79.70
2018-09-28T05:31:11.189Z,79.20
2018-09-28T05:33:42.906Z,79.00
2018-09-28T05:36:14.739Z,79.80
2018-09-28T05:38:46.451Z,80.10
2018-09-28T05:41:18.265Z,80.70
2018-09-28T05:43:50.153Z,81.10
2018-09-28T05:46:21.979Z,81.50
2018-09-28T05:48:53.761Z,82.10
2018-09-28T05:51:25.636Z,82.50
2018-09-28T05:53:57.317Z,82.40
2018-09-28T05:56:29.103Z,82.30
2018-09-28T05:59:05.654Z,82.80
2018-09-28T06:01:42.475Z,83.10
2018-09-28T06:04:18.984Z,83.50
2018-09-28T06:06:50.846Z,83.20
2018-09-28T06:09:22.580Z,82.70
2018-09-28T06:11:54.394Z,82.50
2018-09-28T06:14:26.009Z,81.80
2018-09-28T06:16:57.909Z,81.30
2018-09-28T06:19:29.929Z,80.90
2018-09-28T06:22:01.767Z,79.50
2018-09-28T06:24:33.519Z,79.10
2018-09-28T06:27:05.498Z,79.00
2018-09-28T06:29:37.191Z,78.90
2018-09-28T06:32:09.149Z,78.80
2018-09-28T06:34:40.806Z,78.90
2018-09-28T06:37:12.513Z,78.90
2018-09-28T06:39:44.341Z,78.80
2018-09-28T06:42:16.095Z,78.80
2018-09-28T06:44:47.887Z,78.60
2018-09-28T06:47:19.633Z,78.40
2018-09-28T06:49:51.347Z,79.00
2018-09-28T06:52:23.065Z,78.10
2018-09-28T06:54:54.754Z,78.20
2018-09-28T06:57:26.574Z,78.00
2018-09-28T06:59:58.469Z,77.60
2018-09-28T07:02:30.180Z,77.30
2018-09-28T07:05:01.827Z,77.10
2018-09-28T07:07:33.742Z,76.50
2018-09-28T07:10:05.617Z,76.40
2018-09-28T07:12:37.443Z,76.10
2018-09-28T07:15:09.449Z,76.00
2018-09-28T07:17:41.152Z,75.50
2018-09-28T07:20:13.144Z,75.10
2018-09-28T07:22:45.020Z,74.90
2018-09-28T07:25:16.850Z,74.30
2018-09-28T07:27:48.511Z,73.90
2018-09-28T07:30:20.461Z,73.70
2018-09-28T07:32:52.247Z,73.40
2018-09-28T07:35:24.159Z,72.50
2018-09-28T07:37:55.969Z,71.70
2018-09-28T07:40:27.673Z,71.20
2018-09-28T07:42:59.589Z,70.60
2018-09-28T07:45:31.280Z,69.60
2018-09-28T07:48:03.008Z,69.60
2018-09-28T07:50:34.709Z,69.30
2018-09-28T07:53:06.589Z,68.60
2018-09-28T07:55:38.444Z,67.60
2018-09-28T07:58:10.213Z,67.10
2018-09-28T08:00:41.862Z,67.10
2018-09-28T08:03:13.630Z,66.30
2018-09-28T08:05:45.247Z,66.00
2018-09-28T08:08:17.042Z,65.90
2018-09-28T08:10:48.962Z,65.70
2018-09-28T08:13:21.097Z,64.40
2018-09-28T08:15:52.907Z,63.60
2018-09-28T08:18:24.727Z,62.80
2018-09-28T08:20:56.544Z,61.90
2018-09-28T08:23:28.427Z,62.00
2018-09-28T08:26:00.157Z,61.80
2018-09-28T08:28:31.959Z,61.40
2018-09-28T08:31:03.781Z,60.10
2018-09-28T08:33:35.652Z,60.20
2018-09-28T08:36:07.485Z,59.60
2018-09-28T08:38:39.198Z,58.60
2018-09-28T08:41:10.994Z,58.50
2018-09-28T08:43:42.806Z,58.30
2018-09-28T08:46:14.505Z,57.80
2018-09-28T08:48:46.346Z,57.30
2018-09-28T08:51:18.062Z,57.10
2018-09-28T08:53:50.070Z,56.50
2018-09-28T08:56:21.923Z,56.00
2018-09-28T08:58:53.776Z,55.80
2018-09-28T09:01:25.672Z,55.10
2018-09-28T09:03:57.385Z,54.80
2018-09-28T09:06:29.107Z,54.70
2018-09-28T09:09:00.929Z,54.00
2018-09-28T09:11:32.642Z,53.90
2018-09-28T09:14:04.424Z,53.70
2018-09-28T09:16:36.207Z,53.10
2018-09-28T09:19:08.105Z,54.10
2018-09-28T09:21:39.977Z,52.80
2018-09-28T09:24:11.689Z,52.40
2018-09-28T09:26:43.500Z,52.10
2018-09-28T09:29:15.286Z,51.00
2018-09-28T09:31:47.013Z,50.10
2018-09-28T09:34:18.713Z,49.80
2018-09-28T09:36:50.718Z,49.60
2018-09-28T09:39:22.418Z,49.60
2018-09-28T09:41:54.278Z,49.60
2018-09-28T09:44:26.136Z,49.10
2018-09-28T09:46:57.803Z,49.20
2018-09-28T09:49:29.526Z,48.60
2018-09-28T09:52:01.304Z,48.80
2018-09-28T09:54:32.936Z,47.60
2018-09-28T09:57:04.657Z,47.50
2018-09-28T09:59:36.545Z,46.60
2018-09-28T10:02:13.398Z,46.40
2018-09-28T10:04:45.088Z,47.30
2018-09-28T10:07:16.900Z,48.00
2018-09-28T10:09:48.751Z,47.70
2018-09-28T10:12:20.609Z,47.10
2018-09-28T10:14:52.310Z,47.30
2018-09-28T10:17:24.259Z,47.00
2018-09-28T10:19:56.120Z,46.40
2018-09-28T10:22:27.863Z,46.60
2018-09-28T10:24:59.740Z,46.00
2018-09-28T10:27:31.539Z,46.00
2018-09-28T10:30:03.210Z,45.20
2018-09-28T10:32:35.193Z,45.60
2018-09-28T10:35:07.030Z,44.80
2018-09-28T10:37:38.706Z,44.60
2018-09-28T10:40:10.579Z,45.20
2018-09-28T10:42:42.537Z,44.70
2018-09-28T10:45:14.211Z,43.70
2018-09-28T10:47:45.856Z,44.40
2018-09-28T10:50:17.693Z,44.20
2018-09-28T10:52:49.551Z,44.20
2018-09-28T10:55:21.190Z,44.60
2018-09-28T10:57:53.012Z,44.50
2018-09-28T11:00:24.858Z,44.50
2018-09-28T11:02:56.721Z,44.10
2018-09-28T11:05:28.451Z,42.70
2018-09-28T11:08:00.252Z,42.30
2018-09-28T11:10:32.163Z,40.70
2018-09-28T11:13:03.958Z,41.10
2018-09-28T11:15:35.801Z,41.60
2018-09-28T11:18:07.589Z,42.10
2018-09-28T11:20:39.478Z,41.20
2018-09-28T11:23:11.423Z,41.30
2018-09-28T11:25:43.334Z,40.90
2018-09-28T11:28:15.345Z,40.50
2018-09-28T11:30:47.338Z,40.80
2018-09-28T11:33:19.133Z,39.30
2018-09-28T11:35:51.036Z,40.40
2018-09-28T11:38:22.809Z,40.50
2018-09-28T11:40:54.725Z,40.70
2018-09-28T11:43:26.483Z,39.70
2018-09-28T11:45:58.214Z,38.80
2018-09-28T11:48:30.107Z,39.70
2018-09-28T11:51:01.923Z,39.10
2018-09-28T11:53:33.729Z,39.20
2018-09-28T11:56:05.480Z,38.90
2018-09-28T11:58:37.243Z,37.70
2018-09-28T12:01:09.001Z,38.60
2018-09-28T12:03:40.781Z,38.80
2018-09-28T12:06:12.666Z,38.50
2018-09-28T12:08:44.497Z,38.60
2018-09-28T12:11:16.431Z,38.60
2018-09-28T12:13:48.123Z,37.50
2018-09-28T12:16:19.930Z,37.80
2018-09-28T12:18:51.682Z,36.90
2018-09-28T12:21:23.774Z,36.00
2018-09-28T12:23:55.643Z,36.80
2018-09-28T12:26:27.443Z,36.60
2018-09-28T12:28:59.166Z,35.30
2018-09-28T12:31:30.804Z,35.70
2018-09-28T12:34:02.502Z,34.20
2018-09-28T12:36:34.341Z,33.20
2018-09-28T12:39:07.464Z,34.40
2018-09-28T12:41:39.248Z,34.80
2018-09-28T12:44:11.179Z,35.10
2018-09-28T12:46:43.051Z,33.50
2018-09-28T12:49:14.897Z,32.90
2018-09-28T12:51:46.698Z,33.10
2018-09-28T12:54:18.550Z,33.50
2018-09-28T12:56:50.292Z,33.20
2018-09-28T12:59:22.229Z,33.90
2018-09-28T13:01:53.993Z,33.40
2018-09-28T13:04:25.848Z,33.70
2018-09-28T13:06:57.666Z,32.80
2018-09-28T13:09:29.486Z,33.00
2018-09-28T13:12:01.408Z,33.70
2018-09-28T13:14:33.199Z,33.00
2018-09-28T13:17:04.819Z,33.70
2018-09-28T13:19:36.623Z,34.00
2018-09-28T13:22:08.649Z,32.30
2018-09-28T13:24:40.431Z,32.50
2018-09-28T13:27:12.171Z,33.00
2018-09-28T13:29:43.865Z,32.90
2018-09-28T13:32:15.796Z,33.10
2018-09-28T13:34:47.663Z,33.00
2018-09-28T13:37:19.326Z,31.30
2018-09-28T13:39:51.008Z,30.90
2018-09-28T13:42:22.973Z,31.50
2018-09-28T13:44:54.770Z,31.70
2018-09-28T13:47:26.574Z,31.80
2018-09-28T13:49:58.326Z,31.50
2018-09-28T13:52:30.121Z,32.10
2018-09-28T13:55:01.877Z,32.40
2018-09-28T13:57:33.673Z,33.80
2018-09-28T14:00:05.804Z,33.30
2018-09-28T14:02:37.522Z,33.20
2018-09-28T14:05:09.606Z,32.70
2018-09-28T14:07:41.385Z,32.60
2018-09-28T14:10:13.164Z,33.10
2018-09-28T14:12:45.096Z,33.40
2018-09-28T14:15:16.747Z,32.60
2018-09-28T14:17:48.455Z,33.10
2018-09-28T14:20:20.326Z,33.90
2018-09-28T14:22:52.080Z,33.90
2018-09-28T14:25:23.987Z,34.30
2018-09-28T14:27:55.641Z,34.60
2018-09-28T14:30:27.372Z,34.90
2018-09-28T14:32:59.323Z,35.50
2018-09-28T14:35:31.347Z,34.20
2018-09-28T14:38:03.119Z,35.40
2018-09-28T14:40:34.983Z,35.10
2018-09-28T14:43:06.870Z,35.70
2018-09-28T14:45:38.897Z,36.20
2018-09-28T14:48:10.652Z,36.20
2018-09-28T14:50:43.213Z,36.20
2018-09-28T14:53:14.844Z,36.30
2018-09-28T14:55:46.822Z,36.90
2018-09-28T14:58:18.504Z,36.40
2018-09-28T15:00:50.364Z,36.90
2018-09-28T15:03:22.154Z,37.20
2018-09-28T15:05:53.984Z,36.90
2018-09-28T15:08:25.641Z,37.30
2018-09-28T15:10:57.383Z,37.40
2018-09-28T15:13:29.143Z,37.60
2018-09-28T15:16:00.821Z,37.90
2018-09-28T15:18:32.715Z,38.70
2018-09-28T15:21:04.545Z,38.90
2018-09-28T15:23:36.375Z,38.50
2018-09-28T15:26:08.250Z,38.90
2018-09-28T15:28:39.962Z,40.50
2018-09-28T15:31:11.757Z,41.40
2018-09-28T15:33:43.580Z,42.00
2018-09-28T15:36:15.439Z,42.80
2018-09-28T15:38:47.206Z,44.20
2018-09-28T15:41:19.026Z,45.60
2018-09-28T15:43:50.722Z,46.80
2018-09-28T15:46:22.582Z,47.80
2018-09-28T15:48:54.336Z,48.70
2018-09-28T15:51:26.141Z,49.40
2018-09-28T15:53:57.921Z,50.00
2018-09-28T15:56:29.884Z,50.60
2018-09-28T15:59:01.689Z,51.30
2018-09-28T16:01:33.465Z,51.60
2018-09-28T16:04:05.148Z,52.10
2018-09-28T16:06:37.008Z,52.20
2018-09-28T16:09:10.713Z,52.30
2018-09-28T16:11:42.554Z,52.50
2018-09-28T16:14:14.193Z,52.00
2018-09-28T16:16:46.091Z,52.30
2018-09-28T16:19:17.898Z,52.50
2018-09-28T16:21:49.722Z,52.60
2018-09-28T16:24:21.426Z,52.60
2018-09-28T16:26:53.217Z,52.80
2018-09-28T16:29:25.541Z,52.90
2018-09-28T16:31:58.622Z,52.90
2018-09-28T16:34:42.978Z,53.00
2018-09-28T16:37:14.700Z,52.90
2018-09-28T16:39:49.767Z,53.50
2018-09-28T16:42:22.149Z,54.90
2018-09-28T16:44:53.918Z,55.20
2018-09-28T16:47:25.776Z,55.30
2018-09-28T16:49:57.494Z,55.70
2018-09-28T16:52:29.386Z,56.30
2018-09-28T16:55:01.231Z,56.50
2018-09-28T16:57:32.926Z,57.00
2018-09-28T17:00:04.961Z,57.50
2018-09-28T17:02:36.639Z,57.90
2018-09-28T17:05:08.363Z,58.40
2018-09-28T17:07:40.162Z,59.10
2018-09-28T17:10:11.982Z,58.90
2018-09-28T17:12:43.686Z,59.50
2018-09-28T17:15:15.474Z,59.50
2018-09-28T17:17:47.093Z,59.70
2018-09-28T17:20:18.989Z,60.30
2018-09-28T17:22:50.830Z,60.70
2018-09-28T17:25:22.645Z,61.30
2018-09-28T17:27:54.234Z,61.20
2018-09-28T17:30:26.053Z,61.60
2018-09-28T17:32:57.750Z,62.00
2018-09-28T17:35:29.645Z,62.20
2018-09-28T17:38:01.467Z,62.30
2018-09-28T17:40:33.186Z,62.40
2018-09-28T17:43:05.081Z,62.60
2018-09-28T17:45:37.024Z,62.60
2018-09-28T17:48:08.817Z,62.80
2018-09-28T17:50:40.714Z,62.70
2018-09-28T17:53:12.425Z,62.50
2018-09-28T17:55:44.367Z,62.80
2018-09-28T17:58:16.073Z,63.20
2018-09-28T18:00:47.968Z,64.50
2018-09-28T18:03:19.671Z,64.00
2018-09-28T18:05:51.582Z,64.20
2018-09-28T18:08:23.208Z,64.60
2018-09-28T18:10:55.006Z,64.80
2018-09-28T18:13:26.604Z,65.10
2018-09-28T18:15:58.413Z,65.30
2018-09-28T18:18:30.193Z,65.50
2018-09-28T18:21:01.999Z,66.50
2018-09-28T18:23:33.802Z,65.60
2018-09-28T18:26:05.778Z,65.50
2018-09-28T18:28:37.639Z,65.60
2018-09-28T18:31:09.707Z,65.50
2018-09-28T18:33:41.582Z,65.30
2018-09-28T18:36:13.301Z,65.50
2018-09-28T18:38:45.103Z,64.00
2018-09-28T18:41:16.826Z,63.30
2018-09-28T18:43:48.568Z,63.90
2018-09-28T18:46:20.360Z,64.10
2018-09-28T18:48:52.230Z,63.10
2018-09-28T18:51:24.050Z,62.30
2018-09-28T18:53:55.847Z,62.10
2018-09-28T18:56:27.868Z,62.00
2018-09-28T18:58:59.575Z,61.50
2018-09-28T19:01:31.397Z,61.50
2018-09-28T19:04:03.083Z,61.80
2018-09-28T19:06:34.916Z,61.50
2018-09-28T19:09:09.264Z,61.40
2018-09-28T19:11:41.726Z,61.40
2018-09-28T19:14:13.495Z,61.50
2018-09-28T19:16:45.247Z,60.70
2018-09-28T19:19:17.102Z,60.10
2018-09-28T19:21:48.881Z,59.60
2018-09-28T19:24:20.613Z,59.60
2018-09-28T19:26:52.382Z,58.80
2018-09-28T19:29:24.128Z,58.50
2018-09-28T19:31:55.906Z,58.20
2018-09-28T19:34:27.730Z,57.30
2018-09-28T19:36:59.503Z,57.10
2018-09-28T19:39:31.377Z,56.80
2018-09-28T19:42:03.224Z,55.50
2018-09-28T19:44:34.998Z,56.00
2018-09-28T19:47:06.964Z,54.60
2018-09-28T19:49:38.808Z,55.00
2018-09-28T19:52:10.468Z,55.20
2018-09-28T19:54:42.258Z,53.30
2018-09-28T19:57:14.098Z,54.00
2018-09-28T19:59:45.824Z,53.80
2018-09-28T20:02:17.516Z,53.80
2018-09-28T20:04:49.361Z,54.10
2018-09-28T20:07:21.146Z,53.70
2018-09-28T20:09:53.026Z,53.80
2018-09-28T20:12:24.854Z,53.70
2018-09-28T20:14:56.604Z,53.40
2018-09-28T20:17:28.273Z,53.80
2018-09-28T20:20:00.029Z,53.40
2018-09-28T20:22:31.898Z,53.00
2018-09-28T20:25:03.882Z,52.80
2018-09-28T20:27:35.626Z,52.10
2018-09-28T20:30:07.785Z,52.00
2018-09-28T20:32:39.780Z,52.00
2018-09-28T20:35:11.626Z,52.20
2018-09-28T20:37:43.369Z,52.00
2018-09-28T20:40:15.242Z,51.50
2018-09-28T20:42:47.182Z,51.20
2018-09-28T20:45:18.847Z,51.20
2018-09-28T20:47:50.514Z,51.00
2018-09-28T20:50:22.352Z,50.40
2018-09-28T20:52:54.026Z,50.80
2018-09-28T20:55:25.700Z,51.00
2018-09-28T20:57:57.537Z,50.50
2018-09-28T21:00:29.205Z,49.80
2018-09-28T21:03:00.852Z,50.50
2018-09-28T21:05:32.742Z,50.10
2018-09-28T21:08:04.586Z,50.70
2018-09-28T21:10:36.462Z,50.00
2018-09-28T21:13:08.206Z,50.10
2018-09-28T21:15:40.061Z,49.40
2018-09-28T21:18:11.837Z,49.50
2018-09-28T21:20:43.687Z,49.70
2018-09-28T21:23:15.539Z,49.30
2018-09-28T21:25:47.450Z,49.50
2018-09-28T21:28:19.820Z,48.80
2018-09-28T21:30:51.494Z,48.60
2018-09-28T21:33:23.544Z,49.10
2018-09-28T21:35:55.353Z,49.20
2018-09-28T21:38:27.209Z,49.70
2018-09-28T21:40:58.885Z,49.30
2018-09-28T21:43:30.653Z,48.50
2018-09-28T21:46:02.619Z,48.90
2018-09-28T21:48:34.354Z,49.10
2018-09-28T21:51:06.237Z,49.20
2018-09-28T21:53:38.274Z,49.70
2018-09-28T21:56:10.171Z,49.10
2018-09-28T21:58:41.919Z,49.20
2018-09-28T22:01:18.192Z,49.60
2018-09-28T22:03:51.221Z,49.50
2018-09-28T22:06:22.946Z,49.70
2018-09-28T22:08:54.869Z,49.70
2018-09-28T22:11:26.637Z,49.40
2018-09-28T22:13:58.356Z,49.80
2018-09-28T22:16:30.153Z,49.00
2018-09-28T22:19:02.003Z,49.10
2018-09-28T22:21:33.678Z,49.70
2018-09-28T22:24:05.454Z,49.20
2018-09-28T22:26:37.393Z,49.40
2018-09-28T22:29:09.356Z,49.50
2018-09-28T22:31:41.029Z,49.50
2018-09-28T22:34:12.796Z,49.60
2018-09-28T22:36:44.724Z,49.70
2018-09-28T22:39:16.607Z,49.90
2018-09-28T22:41:48.362Z,49.90
2018-09-28T22:44:20.009Z,50.30
2018-09-28T22:46:51.901Z,50.10
2018-09-28T22:49:23.658Z,50.30
2018-09-28T22:51:55.510Z,50.10
2018-09-28T22:54:27.374Z,50.10
2018-09-28T22:56:59.346Z,50.50
2018-09-28T22:59:31.089Z,50.50
2018-09-28T23:02:02.872Z,50.30
2018-09-28T23:04:34.723Z,50.30
2018-09-28T23:07:06.569Z,49.80
2018-09-28T23:09:38.305Z,50.00
2018-09-28T23:12:10.205Z,50.50
2018-09-28T23:14:41.981Z,50.40
2018-09-28T23:17:13.801Z,50.60
2018-09-28T23:19:45.555Z,50.80
2018-09-28T23:22:17.345Z,51.80
2018-09-28T23:24:49.091Z,51.30
2018-09-28T23:27:20.925Z,50.60
2018-09-28T23:29:52.825Z,51.00
2018-09-28T23:32:24.760Z,51.40
2018-09-28T23:34:56.751Z,50.90
2018-09-28T23:37:28.647Z,51.00
2018-09-28T23:40:00.456Z,51.30
2018-09-28T23:42:32.236Z,51.70
2018-09-28T23:45:03.989Z,51.70
2018-09-28T23:47:35.847Z,52.00
2018-09-28T23:50:07.754Z,51.80
2018-09-28T23:52:39.449Z,52.00
2018-09-28T23:55:11.147Z,52.10
2018-09-28T23:57:42.961Z,52.80
